sensor_id;sensor_type;location;lat;lon;timestamp;pressure;altitude;pressure_sealevel;temperature;humidity
69980;BME280;57318;56.232;43.944;2023-07-09T00:02:11;98671.59;;;20.14;85.89
69980;BME280;57318;56.232;43.944;2023-07-09T00:04:37;98675.75;;;20.17;85.66
69980;BME280;57318;56.232;43.944;2023-07-09T00:07:04;98679.91;;;20.19;85.90
69980;BME280;57318;56.232;43.944;2023-07-09T00:09:30;98677.19;;;20.19;85.25
69980;BME280;57318;56.232;43.944;2023-07-09T00:11:55;98679.06;;;20.19;85.51
69980;BME280;57318;56.232;43.944;2023-07-09T00:14:21;98675.56;;;20.18;85.42
69980;BME280;57318;56.232;43.944;2023-07-09T00:16:55;98666.00;;;20.16;85.35
69980;BME280;57318;56.232;43.944;2023-07-09T00:19:21;98667.03;;;20.15;85.28
69980;BME280;57318;56.232;43.944;2023-07-09T00:21:50;98679.28;;;20.17;85.99
69980;BME280;57318;56.232;43.944;2023-07-09T00:24:19;98668.09;;;20.21;86.03
69980;BME280;57318;56.232;43.944;2023-07-09T00:26:45;98671.59;;;20.28;85.53
69980;BME280;57318;56.232;43.944;2023-07-09T00:29:13;98663.50;;;20.28;84.92
69980;BME280;57318;56.232;43.944;2023-07-09T00:31:39;98659.59;;;20.24;84.69
69980;BME280;57318;56.232;43.944;2023-07-09T00:34:14;98667.88;;;20.22;84.90
69980;BME280;57318;56.232;43.944;2023-07-09T00:36:42;98666.41;;;20.19;84.52
69980;BME280;57318;56.232;43.944;2023-07-09T00:39:29;98663.91;;;20.18;84.75
69980;BME280;57318;56.232;43.944;2023-07-09T00:41:55;98660.41;;;20.17;85.01
69980;BME280;57318;56.232;43.944;2023-07-09T00:44:23;98667.88;;;20.15;84.92
69980;BME280;57318;56.232;43.944;2023-07-09T00:49:37;98670.56;;;20.15;85.14
69980;BME280;57318;56.232;43.944;2023-07-09T00:52:24;98672.41;;;20.15;84.83
69980;BME280;57318;56.232;43.944;2023-07-09T00:54:54;98661.44;;;20.16;84.56
69980;BME280;57318;56.232;43.944;2023-07-09T00:57:23;98653.97;;;20.18;84.33
69980;BME280;57318;56.232;43.944;2023-07-09T00:59:55;98652.31;;;20.17;84.63
69980;BME280;57318;56.232;43.944;2023-07-09T01:02:21;98653.53;;;20.15;84.58
69980;BME280;57318;56.232;43.944;2023-07-09T01:04:51;98659.59;;;20.17;84.84
69980;BME280;57318;56.232;43.944;2023-07-09T01:07:19;98672.22;;;20.16;84.66
69980;BME280;57318;56.232;43.944;2023-07-09T01:09:46;98673.88;;;20.17;84.56
69980;BME280;57318;56.232;43.944;2023-07-09T01:12:13;98680.09;;;20.18;84.48
69980;BME280;57318;56.232;43.944;2023-07-09T01:14:40;98681.97;;;20.17;84.51
69980;BME280;57318;56.232;43.944;2023-07-09T01:17:08;98692.56;;;20.19;84.69
69980;BME280;57318;56.232;43.944;2023-07-09T01:19:40;98709.78;;;20.25;84.90
69980;BME280;57318;56.232;43.944;2023-07-09T01:22:15;98713.53;;;20.24;84.27
69980;BME280;57318;56.232;43.944;2023-07-09T01:24:51;98727.22;;;20.22;84.39
69980;BME280;57318;56.232;43.944;2023-07-09T01:27:20;98726.59;;;20.20;84.20
69980;BME280;57318;56.232;43.944;2023-07-09T01:29:47;98736.13;;;20.23;84.69
69980;BME280;57318;56.232;43.944;2023-07-09T01:32:19;98742.59;;;20.28;84.86
69980;BME280;57318;56.232;43.944;2023-07-09T01:34:47;98756.09;;;20.35;84.84
69980;BME280;57318;56.232;43.944;2023-07-09T01:37:18;98749.50;;;20.44;84.55
69980;BME280;57318;56.232;43.944;2023-07-09T01:39:48;98750.09;;;20.46;83.73
69980;BME280;57318;56.232;43.944;2023-07-09T01:42:16;98757.38;;;20.46;83.69
69980;BME280;57318;56.232;43.944;2023-07-09T01:44:43;98753.88;;;20.45;83.91
69980;BME280;57318;56.232;43.944;2023-07-09T01:47:09;98750.50;;;20.43;84.69
69980;BME280;57318;56.232;43.944;2023-07-09T01:49:35;98742.41;;;20.43;84.72
69980;BME280;57318;56.232;43.944;2023-07-09T01:52:01;98715.22;;;20.38;83.99
69980;BME280;57318;56.232;43.944;2023-07-09T01:54:31;98704.22;;;20.33;84.62
69980;BME280;57318;56.232;43.944;2023-07-09T01:57:14;98698.38;;;20.29;85.35
69980;BME280;57318;56.232;43.944;2023-07-09T01:59:40;98711.25;;;20.27;85.49
69980;BME280;57318;56.232;43.944;2023-07-09T02:02:08;98710.44;;;20.27;85.70
69980;BME280;57318;56.232;43.944;2023-07-09T02:04:33;98716.03;;;20.25;85.59
69980;BME280;57318;56.232;43.944;2023-07-09T02:06:59;98715.81;;;20.27;85.78
69980;BME280;57318;56.232;43.944;2023-07-09T02:09:25;98711.03;;;20.22;85.16
69980;BME280;57318;56.232;43.944;2023-07-09T02:11:51;98699.44;;;20.22;85.75
69980;BME280;57318;56.232;43.944;2023-07-09T02:14:16;98695.88;;;20.21;85.66
69980;BME280;57318;56.232;43.944;2023-07-09T02:16:42;98685.91;;;20.15;85.74
69980;BME280;57318;56.232;43.944;2023-07-09T02:19:08;98690.06;;;20.17;86.01
69980;BME280;57318;56.232;43.944;2023-07-09T02:21:34;98686.34;;;20.18;86.01
69980;BME280;57318;56.232;43.944;2023-07-09T02:24:00;98683.66;;;20.18;85.54
69980;BME280;57318;56.232;43.944;2023-07-09T02:26:26;98687.38;;;20.17;85.59
69980;BME280;57318;56.232;43.944;2023-07-09T02:28:51;98677.00;;;20.14;85.67
69980;BME280;57318;56.232;43.944;2023-07-09T02:31:17;98684.88;;;20.23;85.53
69980;BME280;57318;56.232;43.944;2023-07-09T02:33:43;98677.66;;;20.30;85.51
69980;BME280;57318;56.232;43.944;2023-07-09T02:36:08;98662.69;;;20.34;84.71
69980;BME280;57318;56.232;43.944;2023-07-09T02:38:34;98674.34;;;20.41;84.08
69980;BME280;57318;56.232;43.944;2023-07-09T02:41:00;98673.94;;;20.44;83.92
69980;BME280;57318;56.232;43.944;2023-07-09T02:43:28;98663.97;;;20.51;83.42
69980;BME280;57318;56.232;43.944;2023-07-09T02:45:53;98658.81;;;20.57;83.13
69980;BME280;57318;56.232;43.944;2023-07-09T02:48:19;98654.91;;;20.66;82.44
69980;BME280;57318;56.232;43.944;2023-07-09T02:50:45;98643.25;;;20.72;81.90
69980;BME280;57318;56.232;43.944;2023-07-09T02:53:11;98640.13;;;20.82;81.65
69980;BME280;57318;56.232;43.944;2023-07-09T02:55:36;98634.13;;;20.86;80.90
69980;BME280;57318;56.232;43.944;2023-07-09T02:58:02;98643.44;;;20.90;81.27
69980;BME280;57318;56.232;43.944;2023-07-09T03:00:28;98639.72;;;20.91;80.50
69980;BME280;57318;56.232;43.944;2023-07-09T03:02:54;98633.69;;;20.89;80.45
69980;BME280;57318;56.232;43.944;2023-07-09T03:05:19;98623.72;;;20.90;80.22
69980;BME280;57318;56.232;43.944;2023-07-09T03:07:45;98635.78;;;20.94;80.19
69980;BME280;57318;56.232;43.944;2023-07-09T03:10:11;98640.13;;;21.02;79.69
69980;BME280;57318;56.232;43.944;2023-07-09T03:12:37;98644.44;;;21.09;79.29
69980;BME280;57318;56.232;43.944;2023-07-09T03:15:02;98644.47;;;21.16;78.81
69980;BME280;57318;56.232;43.944;2023-07-09T03:17:30;98646.91;;;21.24;78.34
69980;BME280;57318;56.232;43.944;2023-07-09T03:19:56;98647.31;;;21.28;77.87
69980;BME280;57318;56.232;43.944;2023-07-09T03:22:21;98643.59;;;21.29;77.28
69980;BME280;57318;56.232;43.944;2023-07-09T03:24:47;98648.97;;;21.36;77.15
69980;BME280;57318;56.232;43.944;2023-07-09T03:27:13;98636.88;;;21.45;76.41
69980;BME280;57318;56.232;43.944;2023-07-09T03:29:38;98629.00;;;21.50;76.14
69980;BME280;57318;56.232;43.944;2023-07-09T03:32:04;98635.63;;;21.54;76.03
69980;BME280;57318;56.232;43.944;2023-07-09T03:34:30;98643.94;;;21.59;75.43
69980;BME280;57318;56.232;43.944;2023-07-09T03:36:56;98638.28;;;21.68;75.67
69980;BME280;57318;56.232;43.944;2023-07-09T03:39:21;98638.25;;;21.74;75.19
69980;BME280;57318;56.232;43.944;2023-07-09T03:41:47;98641.78;;;21.75;74.86
69980;BME280;57318;56.232;43.944;2023-07-09T03:44:13;98642.81;;;21.74;75.07
69980;BME280;57318;56.232;43.944;2023-07-09T03:46:39;98633.28;;;21.71;75.16
69980;BME280;57318;56.232;43.944;2023-07-09T03:49:04;98633.84;;;21.80;74.67
69980;BME280;57318;56.232;43.944;2023-07-09T03:51:30;98630.06;;;21.88;74.82
69980;BME280;57318;56.232;43.944;2023-07-09T03:53:56;98625.28;;;21.90;74.37
69980;BME280;57318;56.232;43.944;2023-07-09T03:56:21;98622.56;;;21.90;74.25
69980;BME280;57318;56.232;43.944;2023-07-09T03:58:47;98624.19;;;21.97;73.92
69980;BME280;57318;56.232;43.944;2023-07-09T04:01:13;98619.31;;;22.13;73.16
69980;BME280;57318;56.232;43.944;2023-07-09T04:03:41;98623.19;;;22.24;72.74
69980;BME280;57318;56.232;43.944;2023-07-09T04:06:07;98628.59;;;22.30;72.39
69980;BME280;57318;56.232;43.944;2023-07-09T04:08:33;98626.09;;;22.36;71.96
69980;BME280;57318;56.232;43.944;2023-07-09T04:11:00;98617.09;;;22.42;71.06
69980;BME280;57318;56.232;43.944;2023-07-09T04:13:26;98623.81;;;22.58;70.32
69980;BME280;57318;56.232;43.944;2023-07-09T04:15:54;98619.56;;;22.68;70.08
69980;BME280;57318;56.232;43.944;2023-07-09T04:18:20;98613.94;;;22.70;70.05
69980;BME280;57318;56.232;43.944;2023-07-09T04:20:49;98606.63;;;22.70;69.61
69980;BME280;57318;56.232;43.944;2023-07-09T04:23:16;98600.41;;;22.70;69.79
69980;BME280;57318;56.232;43.944;2023-07-09T04:25:42;98600.44;;;22.63;70.21
69980;BME280;57318;56.232;43.944;2023-07-09T04:28:08;98601.72;;;22.61;70.60
69980;BME280;57318;56.232;43.944;2023-07-09T04:30:34;98616.38;;;22.53;70.50
69980;BME280;57318;56.232;43.944;2023-07-09T04:33:00;98611.22;;;22.45;70.92
69980;BME280;57318;56.232;43.944;2023-07-09T04:35:26;98610.28;;;22.26;71.65
69980;BME280;57318;56.232;43.944;2023-07-09T04:37:52;98601.06;;;22.02;72.54
69980;BME280;57318;56.232;43.944;2023-07-09T04:40:18;98598.91;;;21.85;73.06
69980;BME280;57318;56.232;43.944;2023-07-09T04:42:46;98599.56;;;21.74;73.95
69980;BME280;57318;56.232;43.944;2023-07-09T04:45:11;98596.50;;;21.63;74.66
69980;BME280;57318;56.232;43.944;2023-07-09T04:47:38;98602.94;;;21.62;74.98
69980;BME280;57318;56.232;43.944;2023-07-09T04:50:05;98593.56;;;21.72;74.81
69980;BME280;57318;56.232;43.944;2023-07-09T04:52:31;98589.59;;;21.74;74.62
69980;BME280;57318;56.232;43.944;2023-07-09T04:54:57;98588.09;;;21.78;74.79
69980;BME280;57318;56.232;43.944;2023-07-09T04:57:24;98580.63;;;21.80;74.58
69980;BME280;57318;56.232;43.944;2023-07-09T04:59:49;98589.97;;;21.78;74.57
69980;BME280;57318;56.232;43.944;2023-07-09T05:02:15;98587.72;;;21.75;74.53
69980;BME280;57318;56.232;43.944;2023-07-09T05:04:41;98587.94;;;21.73;74.70
69980;BME280;57318;56.232;43.944;2023-07-09T05:07:07;98580.28;;;21.63;75.03
69980;BME280;57318;56.232;43.944;2023-07-09T05:09:33;98581.16;;;21.57;75.29
69980;BME280;57318;56.232;43.944;2023-07-09T05:11:59;98584.88;;;21.56;75.71
69980;BME280;57318;56.232;43.944;2023-07-09T05:14:27;98579.69;;;21.61;75.47
69980;BME280;57318;56.232;43.944;2023-07-09T05:16:53;98572.19;;;21.63;75.47
69980;BME280;57318;56.232;43.944;2023-07-09T05:19:21;98575.50;;;21.66;75.16
69980;BME280;57318;56.232;43.944;2023-07-09T05:21:47;98581.47;;;21.74;74.95
69980;BME280;57318;56.232;43.944;2023-07-09T05:24:12;98582.25;;;21.81;74.59
69980;BME280;57318;56.232;43.944;2023-07-09T05:26:38;98571.81;;;21.92;74.20
69980;BME280;57318;56.232;43.944;2023-07-09T05:29:04;98574.69;;;21.97;73.87
69980;BME280;57318;56.232;43.944;2023-07-09T05:31:33;98578.41;;;22.03;73.33
69980;BME280;57318;56.232;43.944;2023-07-09T05:34:00;98577.78;;;22.01;73.19
69980;BME280;57318;56.232;43.944;2023-07-09T05:36:26;98582.19;;;21.95;73.54
69980;BME280;57318;56.232;43.944;2023-07-09T05:38:51;98589.28;;;21.89;73.77
69980;BME280;57318;56.232;43.944;2023-07-09T05:41:17;98590.34;;;21.88;73.96
69980;BME280;57318;56.232;43.944;2023-07-09T05:43:43;98588.47;;;21.89;73.95
69980;BME280;57318;56.232;43.944;2023-07-09T05:46:11;98594.09;;;21.87;73.74
69980;BME280;57318;56.232;43.944;2023-07-09T05:48:39;98599.94;;;21.84;74.06
69980;BME280;57318;56.232;43.944;2023-07-09T05:51:04;98599.94;;;21.84;73.98
69980;BME280;57318;56.232;43.944;2023-07-09T05:53:30;98600.53;;;21.86;73.97
69980;BME280;57318;56.232;43.944;2023-07-09T05:55:57;98597.41;;;21.89;73.97
69980;BME280;57318;56.232;43.944;2023-07-09T05:58:23;98599.69;;;21.92;74.07
69980;BME280;57318;56.232;43.944;2023-07-09T06:00:50;98601.78;;;21.90;74.15
69980;BME280;57318;56.232;43.944;2023-07-09T06:03:23;98606.72;;;22.00;73.85
69980;BME280;57318;56.232;43.944;2023-07-09T06:05:49;98601.22;;;22.13;73.48
69980;BME280;57318;56.232;43.944;2023-07-09T06:08:16;98608.22;;;22.21;72.80
69980;BME280;57318;56.232;43.944;2023-07-09T06:10:59;98614.25;;;22.23;72.47
69980;BME280;57318;56.232;43.944;2023-07-09T06:13:26;98612.97;;;22.26;72.24
69980;BME280;57318;56.232;43.944;2023-07-09T06:15:53;98606.59;;;22.20;72.29
69980;BME280;57318;56.232;43.944;2023-07-09T06:18:20;98618.66;;;22.17;72.69
69980;BME280;57318;56.232;43.944;2023-07-09T06:20:51;98612.44;;;22.17;72.78
69980;BME280;57318;56.232;43.944;2023-07-09T06:23:18;98613.84;;;22.20;72.61
69980;BME280;57318;56.232;43.944;2023-07-09T06:25:45;98621.94;;;22.26;72.32
69980;BME280;57318;56.232;43.944;2023-07-09T06:28:15;98624.63;;;22.33;71.99
69980;BME280;57318;56.232;43.944;2023-07-09T06:30:41;98622.94;;;22.39;71.38
69980;BME280;57318;56.232;43.944;2023-07-09T06:33:07;98624.34;;;22.41;71.46
69980;BME280;57318;56.232;43.944;2023-07-09T06:35:32;98623.97;;;22.38;71.58
69980;BME280;57318;56.232;43.944;2023-07-09T06:37:58;98628.78;;;22.36;71.24
69980;BME280;57318;56.232;43.944;2023-07-09T06:40:24;98629.00;;;22.27;71.26
69980;BME280;57318;56.232;43.944;2023-07-09T06:42:50;98629.06;;;22.21;71.58
69980;BME280;57318;56.232;43.944;2023-07-09T06:45:16;98630.78;;;22.15;71.89
69980;BME280;57318;56.232;43.944;2023-07-09T06:47:42;98629.53;;;22.11;71.40
69980;BME280;57318;56.232;43.944;2023-07-09T06:50:08;98634.94;;;22.11;71.86
69980;BME280;57318;56.232;43.944;2023-07-09T06:52:34;98633.91;;;22.12;71.96
69980;BME280;57318;56.232;43.944;2023-07-09T06:54:59;98645.34;;;22.14;71.81
69980;BME280;57318;56.232;43.944;2023-07-09T06:57:25;98639.50;;;22.17;71.72
69980;BME280;57318;56.232;43.944;2023-07-09T06:59:51;98633.66;;;22.20;71.46
69980;BME280;57318;56.232;43.944;2023-07-09T07:02:16;98629.84;;;22.28;71.23
69980;BME280;57318;56.232;43.944;2023-07-09T07:04:43;98633.34;;;22.35;70.72
69980;BME280;57318;56.232;43.944;2023-07-09T07:07:08;98628.28;;;22.45;70.19
69980;BME280;57318;56.232;43.944;2023-07-09T07:09:34;98631.53;;;22.54;69.98
69980;BME280;57318;56.232;43.944;2023-07-09T07:12:00;98635.25;;;22.60;70.07
69980;BME280;57318;56.232;43.944;2023-07-09T07:14:25;98630.00;;;22.65;69.37
69980;BME280;57318;56.232;43.944;2023-07-09T07:16:51;98621.88;;;22.65;69.54
69980;BME280;57318;56.232;43.944;2023-07-09T07:19:17;98613.75;;;22.65;69.66
69980;BME280;57318;56.232;43.944;2023-07-09T07:21:42;98615.19;;;22.67;69.84
69980;BME280;57318;56.232;43.944;2023-07-09T07:24:08;98609.13;;;22.72;69.94
69980;BME280;57318;56.232;43.944;2023-07-09T07:26:34;98607.38;;;22.78;69.99
69980;BME280;57318;56.232;43.944;2023-07-09T07:28:59;98603.56;;;22.85;69.19
69980;BME280;57318;56.232;43.944;2023-07-09T07:31:25;98606.91;;;22.87;69.06
69980;BME280;57318;56.232;43.944;2023-07-09T07:33:51;98606.06;;;22.87;68.85
69980;BME280;57318;56.232;43.944;2023-07-09T07:36:17;98605.31;;;22.80;68.88
69980;BME280;57318;56.232;43.944;2023-07-09T07:38:43;98608.31;;;22.72;69.51
69980;BME280;57318;56.232;43.944;2023-07-09T07:41:09;98603.38;;;22.62;70.37
69980;BME280;57318;56.232;43.944;2023-07-09T07:43:34;98601.81;;;22.47;70.87
69980;BME280;57318;56.232;43.944;2023-07-09T07:46:01;98607.34;;;22.34;71.46
69980;BME280;57318;56.232;43.944;2023-07-09T07:48:27;98610.09;;;22.21;72.01
69980;BME280;57318;56.232;43.944;2023-07-09T07:50:58;98608.09;;;22.09;72.40
69980;BME280;57318;56.232;43.944;2023-07-09T07:53:24;98612.34;;;21.98;73.26
69980;BME280;57318;56.232;43.944;2023-07-09T07:55:50;98614.91;;;21.87;73.62
69980;BME280;57318;56.232;43.944;2023-07-09T07:58:16;98613.06;;;21.80;74.09
69980;BME280;57318;56.232;43.944;2023-07-09T08:00:43;98624.13;;;21.72;75.10
69980;BME280;57318;56.232;43.944;2023-07-09T08:03:09;98622.47;;;21.71;75.13
69980;BME280;57318;56.232;43.944;2023-07-09T08:05:34;98614.56;;;21.70;75.28
69980;BME280;57318;56.232;43.944;2023-07-09T08:08:00;98618.91;;;21.71;75.54
69980;BME280;57318;56.232;43.944;2023-07-09T08:10:26;98622.69;;;21.70;75.51
69980;BME280;57318;56.232;43.944;2023-07-09T08:12:52;98613.50;;;21.71;75.98
69980;BME280;57318;56.232;43.944;2023-07-09T08:15:25;98617.47;;;21.75;75.98
69980;BME280;57318;56.232;43.944;2023-07-09T08:17:51;98623.47;;;21.84;75.75
69980;BME280;57318;56.232;43.944;2023-07-09T08:20:17;98622.56;;;21.90;75.64
69980;BME280;57318;56.232;43.944;2023-07-09T08:22:43;98613.38;;;21.97;75.43
69980;BME280;57318;56.232;43.944;2023-07-09T08:25:09;98619.41;;;21.99;74.82
69980;BME280;57318;56.232;43.944;2023-07-09T08:27:35;98622.13;;;21.99;75.35
69980;BME280;57318;56.232;43.944;2023-07-09T08:30:00;98612.13;;;22.00;75.75
69980;BME280;57318;56.232;43.944;2023-07-09T08:32:26;98612.91;;;22.07;75.84
69980;BME280;57318;56.232;43.944;2023-07-09T08:34:54;98614.34;;;22.10;75.83
69980;BME280;57318;56.232;43.944;2023-07-09T08:37:20;98608.72;;;22.11;75.26
69980;BME280;57318;56.232;43.944;2023-07-09T08:39:46;98608.75;;;22.05;75.50
69980;BME280;57318;56.232;43.944;2023-07-09T08:42:14;98596.28;;;22.04;75.63
69980;BME280;57318;56.232;43.944;2023-07-09T08:47:47;98599.84;;;21.97;76.08
69980;BME280;57318;56.232;43.944;2023-07-09T08:50:24;98599.72;;;21.86;76.82
69980;BME280;57318;56.232;43.944;2023-07-09T08:52:55;98598.91;;;21.78;76.40
69980;BME280;57318;56.232;43.944;2023-07-09T08:55:25;98592.69;;;21.78;76.34
69980;BME280;57318;56.232;43.944;2023-07-09T08:58:12;98594.16;;;21.74;75.43
69980;BME280;57318;56.232;43.944;2023-07-09T09:00:59;98591.03;;;21.77;76.27
69980;BME280;57318;56.232;43.944;2023-07-09T09:06:35;98587.03;;;21.86;76.24
69980;BME280;57318;56.232;43.944;2023-07-09T09:14:34;98585.81;;;21.82;76.33
69980;BME280;57318;56.232;43.944;2023-07-09T09:17:02;98586.25;;;21.79;76.56
69980;BME280;57318;56.232;43.944;2023-07-09T09:19:33;98588.94;;;21.79;76.86
69980;BME280;57318;56.232;43.944;2023-07-09T09:22:11;98580.63;;;21.80;76.93
69980;BME280;57318;56.232;43.944;2023-07-09T09:27:42;98586.75;;;21.94;76.47
69980;BME280;57318;56.232;43.944;2023-07-09T09:30:11;98590.03;;;22.03;75.84
69980;BME280;57318;56.232;43.944;2023-07-09T09:32:44;98596.03;;;22.12;75.57
69980;BME280;57318;56.232;43.944;2023-07-09T09:35:16;98593.28;;;22.19;75.06
69980;BME280;57318;56.232;43.944;2023-07-09T09:37:49;98596.16;;;22.24;75.08
69980;BME280;57318;56.232;43.944;2023-07-09T09:40:19;98594.47;;;22.23;75.30
69980;BME280;57318;56.232;43.944;2023-07-09T09:42:49;98597.88;;;22.11;75.23
69980;BME280;57318;56.232;43.944;2023-07-09T09:45:18;98588.59;;;22.01;75.82
69980;BME280;57318;56.232;43.944;2023-07-09T09:47:47;98591.00;;;21.84;76.29
69980;BME280;57318;56.232;43.944;2023-07-09T09:50:18;98576.72;;;21.70;77.16
69980;BME280;57318;56.232;43.944;2023-07-09T09:52:46;98575.31;;;21.60;76.98
69980;BME280;57318;56.232;43.944;2023-07-09T09:55:18;98574.06;;;21.56;77.88
69980;BME280;57318;56.232;43.944;2023-07-09T09:57:52;98566.19;;;21.55;78.05
69980;BME280;57318;56.232;43.944;2023-07-09T10:00:22;98567.47;;;21.52;78.23
69980;BME280;57318;56.232;43.944;2023-07-09T10:02:50;98567.88;;;21.49;78.41
69980;BME280;57318;56.232;43.944;2023-07-09T10:05:31;98561.63;;;21.49;78.67
69980;BME280;57318;56.232;43.944;2023-07-09T10:08:03;98554.97;;;21.51;78.64
69980;BME280;57318;56.232;43.944;2023-07-09T10:10:32;98558.06;;;21.61;78.41
69980;BME280;57318;56.232;43.944;2023-07-09T10:13:26;98548.63;;;21.71;77.61
69980;BME280;57318;56.232;43.944;2023-07-09T10:16:05;98551.25;;;21.84;76.72
69980;BME280;57318;56.232;43.944;2023-07-09T10:21:14;98553.22;;;22.02;75.91
69980;BME280;57318;56.232;43.944;2023-07-09T10:26:51;98560.50;;;22.02;75.25
69980;BME280;57318;56.232;43.944;2023-07-09T10:29:43;98555.19;;;21.88;75.52
69980;BME280;57318;56.232;43.944;2023-07-09T10:34:56;98548.94;;;21.88;75.68
69980;BME280;57318;56.232;43.944;2023-07-09T10:40:33;98551.56;;;22.01;74.81
69980;BME280;57318;56.232;43.944;2023-07-09T10:43:04;98552.16;;;22.03;74.86
69980;BME280;57318;56.232;43.944;2023-07-09T10:45:42;98555.88;;;22.09;74.75
69980;BME280;57318;56.232;43.944;2023-07-09T10:48:16;98551.28;;;22.09;74.42
69980;BME280;57318;56.232;43.944;2023-07-09T10:50:50;98554.22;;;22.08;74.65
69980;BME280;57318;56.232;43.944;2023-07-09T10:56:12;98556.56;;;21.97;73.67
69980;BME280;57318;56.232;43.944;2023-07-09T10:58:46;98557.66;;;21.90;74.48
69980;BME280;57318;56.232;43.944;2023-07-09T11:01:16;98548.94;;;21.88;75.08
69980;BME280;57318;56.232;43.944;2023-07-09T11:03:50;98544.81;;;21.85;75.50
69980;BME280;57318;56.232;43.944;2023-07-09T11:06:36;98546.44;;;21.86;75.37
69980;BME280;57318;56.232;43.944;2023-07-09T11:09:30;98540.22;;;21.86;75.01
69980;BME280;57318;56.232;43.944;2023-07-09T11:12:22;98538.13;;;21.88;75.04
69980;BME280;57318;56.232;43.944;2023-07-09T11:14:55;98541.63;;;21.95;74.94
69980;BME280;57318;56.232;43.944;2023-07-09T11:17:27;98541.41;;;21.96;74.94
69980;BME280;57318;56.232;43.944;2023-07-09T11:19:55;98540.75;;;22.01;74.93
69980;BME280;57318;56.232;43.944;2023-07-09T11:24:51;98543.84;;;22.05;74.93
69980;BME280;57318;56.232;43.944;2023-07-09T11:27:26;98544.66;;;22.05;74.51
69980;BME280;57318;56.232;43.944;2023-07-09T11:30:01;98550.47;;;22.09;74.55
69980;BME280;57318;56.232;43.944;2023-07-09T11:32:32;98546.50;;;22.11;74.62
69980;BME280;57318;56.232;43.944;2023-07-09T11:35:08;98545.06;;;22.09;74.63
69980;BME280;57318;56.232;43.944;2023-07-09T11:37:44;98543.84;;;22.05;74.39
69980;BME280;57318;56.232;43.944;2023-07-09T11:40:11;98541.41;;;21.96;75.23
69980;BME280;57318;56.232;43.944;2023-07-09T11:45:19;98547.97;;;21.82;76.96
69980;BME280;57318;56.232;43.944;2023-07-09T11:50:29;98532.88;;;21.61;78.04
69980;BME280;57318;56.232;43.944;2023-07-09T11:52:58;98536.00;;;21.58;78.73
69980;BME280;57318;56.232;43.944;2023-07-09T11:55:29;98525.25;;;21.51;78.84
69980;BME280;57318;56.232;43.944;2023-07-09T11:58:01;98534.19;;;21.45;78.57
69980;BME280;57318;56.232;43.944;2023-07-09T12:00:36;98537.13;;;21.37;78.51
69980;BME280;57318;56.232;43.944;2023-07-09T12:03:02;98539.47;;;21.26;79.58
69980;BME280;57318;56.232;43.944;2023-07-09T12:05:29;98546.34;;;21.22;80.13
69980;BME280;57318;56.232;43.944;2023-07-09T12:07:55;98545.94;;;21.19;80.38
69980;BME280;57318;56.232;43.944;2023-07-09T12:10:24;98525.16;;;21.13;80.32
69980;BME280;57318;56.232;43.944;2023-07-09T12:12:55;98515.00;;;21.08;80.52
69980;BME280;57318;56.232;43.944;2023-07-09T12:15:24;98521.47;;;21.07;80.59
69980;BME280;57318;56.232;43.944;2023-07-09T12:17:58;98534.56;;;21.10;80.75
69980;BME280;57318;56.232;43.944;2023-07-09T12:20:28;98536.81;;;21.13;80.36
69980;BME280;57318;56.232;43.944;2023-07-09T12:22:56;98521.00;;;21.17;79.89
69980;BME280;57318;56.232;43.944;2023-07-09T12:25:25;98501.06;;;21.18;79.48
69980;BME280;57318;56.232;43.944;2023-07-09T12:27:52;98458.06;;;21.09;79.07
69980;BME280;57318;56.232;43.944;2023-07-09T12:30:19;98424.66;;;21.04;78.87
69980;BME280;57318;56.232;43.944;2023-07-09T12:32:46;98436.28;;;21.04;79.15
69980;BME280;57318;56.232;43.944;2023-07-09T12:35:13;98435.84;;;21.07;79.89
69980;BME280;57318;56.232;43.944;2023-07-09T12:37:43;98428.78;;;21.13;79.63
69980;BME280;57318;56.232;43.944;2023-07-09T12:40:20;98431.66;;;21.18;79.50
69980;BME280;57318;56.232;43.944;2023-07-09T12:42:47;98426.84;;;21.20;79.39
69980;BME280;57318;56.232;43.944;2023-07-09T12:45:17;98411.28;;;21.22;79.03
69980;BME280;57318;56.232;43.944;2023-07-09T12:47:45;98397.97;;;21.21;78.72
69980;BME280;57318;56.232;43.944;2023-07-09T12:50:30;98407.13;;;21.20;78.86
69980;BME280;57318;56.232;43.944;2023-07-09T12:53:01;98392.59;;;21.14;78.57
69980;BME280;57318;56.232;43.944;2023-07-09T12:55:29;98386.47;;;21.00;79.08
69980;BME280;57318;56.232;43.944;2023-07-09T12:58:02;98386.75;;;20.85;79.58
69980;BME280;57318;56.232;43.944;2023-07-09T13:00:30;98373.31;;;20.72;80.37
69980;BME280;57318;56.232;43.944;2023-07-09T13:02:57;98373.31;;;20.59;81.35
69980;BME280;57318;56.232;43.944;2023-07-09T13:05:25;98383.75;;;20.42;82.33
69980;BME280;57318;56.232;43.944;2023-07-09T13:08:01;98390.00;;;20.35;83.66
69980;BME280;57318;56.232;43.944;2023-07-09T13:10:30;98389.44;;;20.27;83.96
69980;BME280;57318;56.232;43.944;2023-07-09T13:13:05;98417.25;;;20.21;84.40
69980;BME280;57318;56.232;43.944;2023-07-09T13:18:04;98449.00;;;20.18;85.70
69980;BME280;57318;56.232;43.944;2023-07-09T13:20:32;98449.00;;;20.18;85.98
69980;BME280;57318;56.232;43.944;2023-07-09T13:22:58;98435.31;;;20.20;85.74
69980;BME280;57318;56.232;43.944;2023-07-09T13:25:26;98403.75;;;20.21;85.67
69980;BME280;57318;56.232;43.944;2023-07-09T13:27:53;98396.91;;;20.18;84.76
69980;BME280;57318;56.232;43.944;2023-07-09T13:30:18;98393.81;;;20.14;84.51
69980;BME280;57318;56.232;43.944;2023-07-09T13:32:46;98384.03;;;20.13;85.29
69980;BME280;57318;56.232;43.944;2023-07-09T13:35:17;98388.44;;;20.08;85.48
69980;BME280;57318;56.232;43.944;2023-07-09T13:37:45;98392.78;;;20.02;86.17
69980;BME280;57318;56.232;43.944;2023-07-09T13:40:15;98393.81;;;20.01;86.73